CYTE

Cape Dorset Airport

Cape Dorset, Canada
METAR CYTE 241124Z AUTO 26015G20KT 3SM -SN SCT007 BKN012 BKN020 OVC040 M01/M01 A2991 RMK SLP133
Observed Flight Rules
Sep-24 @ 11:24 UTC (12 minutes ago) Marginal Visual Flight Rules
Wind Visibility Clouds Conditions
260° at 15 knots
 Gusting to 20 knots
3 miles
  • Scattered at 700' AGL
  • Broken at 1,200' AGL
  • Broken at 2,000' AGL
  • Overcast at 4,000' AGL
  • Light Snow
Temperatures Readings
Current -1°C / 30°F
Dewpoint -1°C / 30°F
Humidity 100%
Altimeter 29.91" Hg
Pressure 1013.3 hPa
Elevation 47
METAR CYTE 241124Z AUTO 26015G20KT 3SM -SN SCT007 BKN012 BKN020 OVC040 M01/M01 A2991 RMK SLP133
Observed Flight Rules
Sep-24 @ 11:24 UTC
(12 minutes ago)
MVFR
Wind Visibility
260° at 15 knots
 Gusting to 20 knots
3 miles
Clouds
  • Scattered at 700' AGL
  • Broken at 1,200' AGL
  • Broken at 2,000' AGL
  • Overcast at 4,000' AGL
Conditions
  • Light Snow
Temperature Dewpoint
-1°C / 30°F -1°C / 30°F
Humidity Altimeter Pressure
100% 29.91" Hg 1013.3 hPa